sensor_id;sensor_type;location;lat;lon;timestamp;P1;durP1;ratioP1;P2;durP2;ratioP2
12433;SDS011;6281;49.038;8.372;2022-12-07T00:01:09;12.43;;;7.77;;
12433;SDS011;6281;49.038;8.372;2022-12-07T00:03:37;10.77;;;7.27;;
12433;SDS011;6281;49.038;8.372;2022-12-07T00:06:05;11.83;;;8.07;;
12433;SDS011;6281;49.038;8.372;2022-12-07T00:08:34;9.87;;;7.60;;
12433;SDS011;6281;49.038;8.372;2022-12-07T00:11:01;9.03;;;7.50;;
12433;SDS011;6281;49.038;8.372;2022-12-07T00:13:29;11.03;;;7.97;;
12433;SDS011;6281;49.038;8.372;2022-12-07T00:16:00;11.90;;;8.40;;
12433;SDS011;6281;49.038;8.372;2022-12-07T00:18:28;12.93;;;8.23;;
12433;SDS011;6281;49.038;8.372;2022-12-07T00:20:58;12.07;;;7.63;;
12433;SDS011;6281;49.038;8.372;2022-12-07T00:23:26;10.43;;;7.93;;
12433;SDS011;6281;49.038;8.372;2022-12-07T00:25:53;9.90;;;7.47;;
12433;SDS011;6281;49.038;8.372;2022-12-07T00:28:20;11.73;;;8.00;;
12433;SDS011;6281;49.038;8.372;2022-12-07T00:30:47;11.40;;;8.30;;
12433;SDS011;6281;49.038;8.372;2022-12-07T00:33:15;11.00;;;8.23;;
12433;SDS011;6281;49.038;8.372;2022-12-07T00:35:42;13.43;;;7.77;;
12433;SDS011;6281;49.038;8.372;2022-12-07T00:38:09;11.73;;;8.90;;
12433;SDS011;6281;49.038;8.372;2022-12-07T00:40:36;11.67;;;8.50;;
12433;SDS011;6281;49.038;8.372;2022-12-07T00:43:03;13.73;;;8.70;;
12433;SDS011;6281;49.038;8.372;2022-12-07T00:45:29;10.00;;;8.37;;
12433;SDS011;6281;49.038;8.372;2022-12-07T00:47:56;11.80;;;8.47;;
12433;SDS011;6281;49.038;8.372;2022-12-07T00:50:25;10.20;;;8.03;;
12433;SDS011;6281;49.038;8.372;2022-12-07T00:52:51;10.27;;;8.20;;
12433;SDS011;6281;49.038;8.372;2022-12-07T00:55:18;11.53;;;9.03;;
12433;SDS011;6281;49.038;8.372;2022-12-07T00:57:45;11.57;;;8.63;;
12433;SDS011;6281;49.038;8.372;2022-12-07T01:00:12;13.20;;;8.97;;
12433;SDS011;6281;49.038;8.372;2022-12-07T01:02:40;11.47;;;8.40;;
12433;SDS011;6281;49.038;8.372;2022-12-07T01:05:26;14.40;;;8.97;;
12433;SDS011;6281;49.038;8.372;2022-12-07T01:07:53;17.80;;;9.43;;
12433;SDS011;6281;49.038;8.372;2022-12-07T01:10:20;13.87;;;9.90;;
12433;SDS011;6281;49.038;8.372;2022-12-07T01:12:47;15.53;;;9.57;;
12433;SDS011;6281;49.038;8.372;2022-12-07T01:15:14;14.00;;;9.57;;
12433;SDS011;6281;49.038;8.372;2022-12-07T01:17:41;14.30;;;9.80;;
12433;SDS011;6281;49.038;8.372;2022-12-07T01:20:08;16.90;;;10.57;;
12433;SDS011;6281;49.038;8.372;2022-12-07T01:22:38;18.00;;;10.80;;
12433;SDS011;6281;49.038;8.372;2022-12-07T01:25:06;14.60;;;10.13;;
12433;SDS011;6281;49.038;8.372;2022-12-07T01:27:34;18.33;;;11.23;;
12433;SDS011;6281;49.038;8.372;2022-12-07T01:30:03;15.40;;;10.73;;
12433;SDS011;6281;49.038;8.372;2022-12-07T01:32:31;16.53;;;11.20;;
12433;SDS011;6281;49.038;8.372;2022-12-07T01:34:58;19.33;;;11.40;;
12433;SDS011;6281;49.038;8.372;2022-12-07T01:37:25;17.83;;;11.20;;
12433;SDS011;6281;49.038;8.372;2022-12-07T01:39:53;18.17;;;12.00;;
12433;SDS011;6281;49.038;8.372;2022-12-07T01:42:20;16.40;;;11.00;;
12433;SDS011;6281;49.038;8.372;2022-12-07T01:47:56;17.07;;;11.63;;
12433;SDS011;6281;49.038;8.372;2022-12-07T01:50:25;16.53;;;11.33;;
12433;SDS011;6281;49.038;8.372;2022-12-07T01:52:56;17.80;;;12.00;;
12433;SDS011;6281;49.038;8.372;2022-12-07T01:55:28;15.30;;;11.10;;
12433;SDS011;6281;49.038;8.372;2022-12-07T01:57:55;16.37;;;10.87;;
12433;SDS011;6281;49.038;8.372;2022-12-07T02:00:23;16.27;;;11.13;;
12433;SDS011;6281;49.038;8.372;2022-12-07T02:02:51;17.50;;;11.73;;
12433;SDS011;6281;49.038;8.372;2022-12-07T02:05:22;15.57;;;10.53;;
12433;SDS011;6281;49.038;8.372;2022-12-07T02:07:50;17.37;;;11.53;;
12433;SDS011;6281;49.038;8.372;2022-12-07T02:10:21;20.93;;;12.43;;
12433;SDS011;6281;49.038;8.372;2022-12-07T02:12:52;18.43;;;12.63;;
12433;SDS011;6281;49.038;8.372;2022-12-07T02:15:22;19.90;;;12.33;;
12433;SDS011;6281;49.038;8.372;2022-12-07T02:17:54;19.57;;;12.30;;
12433;SDS011;6281;49.038;8.372;2022-12-07T02:20:28;16.73;;;10.90;;
12433;SDS011;6281;49.038;8.372;2022-12-07T02:29:14;19.83;;;12.20;;
12433;SDS011;6281;49.038;8.372;2022-12-07T02:31:49;19.87;;;11.70;;
12433;SDS011;6281;49.038;8.372;2022-12-07T02:34:24;19.10;;;11.47;;
12433;SDS011;6281;49.038;8.372;2022-12-07T02:37:02;20.20;;;12.23;;
12433;SDS011;6281;49.038;8.372;2022-12-07T02:39:37;16.10;;;9.13;;
12433;SDS011;6281;49.038;8.372;2022-12-07T02:42:12;19.33;;;12.63;;
12433;SDS011;6281;49.038;8.372;2022-12-07T02:44:45;18.13;;;11.83;;
12433;SDS011;6281;49.038;8.372;2022-12-07T02:47:13;19.20;;;12.00;;
12433;SDS011;6281;49.038;8.372;2022-12-07T02:49:43;14.50;;;9.37;;
12433;SDS011;6281;49.038;8.372;2022-12-07T02:52:11;19.97;;;10.83;;
12433;SDS011;6281;49.038;8.372;2022-12-07T02:54:38;20.70;;;12.30;;
12433;SDS011;6281;49.038;8.372;2022-12-07T02:57:08;21.57;;;11.40;;
12433;SDS011;6281;49.038;8.372;2022-12-07T02:59:48;21.40;;;12.63;;
12433;SDS011;6281;49.038;8.372;2022-12-07T03:02:27;18.03;;;11.60;;
12433;SDS011;6281;49.038;8.372;2022-12-07T03:05:02;15.37;;;10.27;;
12433;SDS011;6281;49.038;8.372;2022-12-07T03:07:42;17.70;;;11.47;;
12433;SDS011;6281;49.038;8.372;2022-12-07T03:10:14;17.33;;;12.03;;
12433;SDS011;6281;49.038;8.372;2022-12-07T03:12:49;19.80;;;12.17;;
12433;SDS011;6281;49.038;8.372;2022-12-07T03:15:26;16.93;;;11.07;;
12433;SDS011;6281;49.038;8.372;2022-12-07T03:17:56;19.27;;;12.33;;
12433;SDS011;6281;49.038;8.372;2022-12-07T03:20:26;16.57;;;10.57;;
12433;SDS011;6281;49.038;8.372;2022-12-07T03:22:55;17.93;;;11.20;;
12433;SDS011;6281;49.038;8.372;2022-12-07T03:25:23;21.10;;;12.23;;
12433;SDS011;6281;49.038;8.372;2022-12-07T03:27:52;19.00;;;11.57;;
12433;SDS011;6281;49.038;8.372;2022-12-07T03:30:23;19.33;;;10.70;;
12433;SDS011;6281;49.038;8.372;2022-12-07T03:32:56;19.77;;;11.40;;
12433;SDS011;6281;49.038;8.372;2022-12-07T03:35:26;16.17;;;10.97;;
12433;SDS011;6281;49.038;8.372;2022-12-07T03:37:57;17.33;;;11.30;;
12433;SDS011;6281;49.038;8.372;2022-12-07T03:40:30;20.00;;;11.40;;
12433;SDS011;6281;49.038;8.372;2022-12-07T03:43:01;16.27;;;10.93;;
12433;SDS011;6281;49.038;8.372;2022-12-07T03:45:31;16.27;;;10.90;;
12433;SDS011;6281;49.038;8.372;2022-12-07T03:48:05;16.90;;;10.90;;
12433;SDS011;6281;49.038;8.372;2022-12-07T03:50:38;16.07;;;10.80;;
12433;SDS011;6281;49.038;8.372;2022-12-07T03:53:10;18.77;;;11.13;;
12433;SDS011;6281;49.038;8.372;2022-12-07T03:55:41;16.37;;;9.77;;
12433;SDS011;6281;49.038;8.372;2022-12-07T03:58:11;15.23;;;10.70;;
12433;SDS011;6281;49.038;8.372;2022-12-07T04:00:43;17.70;;;11.77;;
12433;SDS011;6281;49.038;8.372;2022-12-07T04:03:11;17.73;;;11.23;;
12433;SDS011;6281;49.038;8.372;2022-12-07T04:05:38;17.87;;;10.63;;
12433;SDS011;6281;49.038;8.372;2022-12-07T04:08:06;15.83;;;10.37;;
12433;SDS011;6281;49.038;8.372;2022-12-07T04:10:33;16.20;;;10.23;;
12433;SDS011;6281;49.038;8.372;2022-12-07T04:13:00;18.07;;;11.47;;
12433;SDS011;6281;49.038;8.372;2022-12-07T04:15:27;18.73;;;11.83;;
12433;SDS011;6281;49.038;8.372;2022-12-07T04:17:55;18.23;;;11.07;;
12433;SDS011;6281;49.038;8.372;2022-12-07T04:20:22;15.87;;;10.17;;
12433;SDS011;6281;49.038;8.372;2022-12-07T04:22:49;18.20;;;12.10;;
12433;SDS011;6281;49.038;8.372;2022-12-07T04:25:16;18.57;;;11.17;;
12433;SDS011;6281;49.038;8.372;2022-12-07T04:27:43;18.60;;;11.87;;
12433;SDS011;6281;49.038;8.372;2022-12-07T04:30:10;19.97;;;12.70;;
12433;SDS011;6281;49.038;8.372;2022-12-07T04:32:37;17.67;;;10.93;;
12433;SDS011;6281;49.038;8.372;2022-12-07T04:35:06;18.27;;;12.27;;
12433;SDS011;6281;49.038;8.372;2022-12-07T04:37:34;17.13;;;11.47;;
12433;SDS011;6281;49.038;8.372;2022-12-07T04:40:01;17.93;;;11.70;;
12433;SDS011;6281;49.038;8.372;2022-12-07T04:42:28;21.67;;;12.33;;
12433;SDS011;6281;49.038;8.372;2022-12-07T04:44:54;18.77;;;12.33;;
12433;SDS011;6281;49.038;8.372;2022-12-07T04:47:21;19.40;;;11.43;;
12433;SDS011;6281;49.038;8.372;2022-12-07T04:49:48;17.97;;;11.40;;
12433;SDS011;6281;49.038;8.372;2022-12-07T04:52:17;20.53;;;12.27;;
12433;SDS011;6281;49.038;8.372;2022-12-07T04:54:43;17.50;;;12.23;;
12433;SDS011;6281;49.038;8.372;2022-12-07T04:57:10;17.77;;;12.07;;
12433;SDS011;6281;49.038;8.372;2022-12-07T04:59:37;18.53;;;11.70;;
12433;SDS011;6281;49.038;8.372;2022-12-07T05:02:04;20.30;;;13.30;;
12433;SDS011;6281;49.038;8.372;2022-12-07T05:04:31;18.67;;;11.90;;
12433;SDS011;6281;49.038;8.372;2022-12-07T05:06:58;22.70;;;12.70;;
12433;SDS011;6281;49.038;8.372;2022-12-07T05:09:26;19.13;;;12.40;;
12433;SDS011;6281;49.038;8.372;2022-12-07T05:11:53;19.10;;;12.23;;
12433;SDS011;6281;49.038;8.372;2022-12-07T05:14:20;18.03;;;11.50;;
12433;SDS011;6281;49.038;8.372;2022-12-07T05:16:48;18.37;;;11.37;;
12433;SDS011;6281;49.038;8.372;2022-12-07T05:19:16;20.33;;;11.43;;
12433;SDS011;6281;49.038;8.372;2022-12-07T05:21:44;18.50;;;12.13;;
12433;SDS011;6281;49.038;8.372;2022-12-07T05:24:11;21.53;;;12.40;;
12433;SDS011;6281;49.038;8.372;2022-12-07T05:26:41;18.50;;;11.13;;
12433;SDS011;6281;49.038;8.372;2022-12-07T05:29:10;20.47;;;12.17;;
12433;SDS011;6281;49.038;8.372;2022-12-07T05:31:38;18.73;;;11.00;;
12433;SDS011;6281;49.038;8.372;2022-12-07T05:34:05;17.27;;;10.20;;
12433;SDS011;6281;49.038;8.372;2022-12-07T05:36:32;18.07;;;11.13;;
12433;SDS011;6281;49.038;8.372;2022-12-07T05:38:59;18.70;;;11.37;;
12433;SDS011;6281;49.038;8.372;2022-12-07T05:41:26;16.17;;;10.60;;
12433;SDS011;6281;49.038;8.372;2022-12-07T05:44:12;21.57;;;12.20;;
12433;SDS011;6281;49.038;8.372;2022-12-07T05:46:39;21.50;;;11.97;;
12433;SDS011;6281;49.038;8.372;2022-12-07T05:49:06;18.10;;;11.03;;
12433;SDS011;6281;49.038;8.372;2022-12-07T05:51:33;19.13;;;11.80;;
12433;SDS011;6281;49.038;8.372;2022-12-07T05:54:00;17.50;;;10.43;;
12433;SDS011;6281;49.038;8.372;2022-12-07T05:56:27;18.50;;;11.97;;
12433;SDS011;6281;49.038;8.372;2022-12-07T05:58:54;16.20;;;9.60;;
12433;SDS011;6281;49.038;8.372;2022-12-07T06:01:40;19.57;;;11.70;;
12433;SDS011;6281;49.038;8.372;2022-12-07T06:04:07;20.00;;;12.17;;
12433;SDS011;6281;49.038;8.372;2022-12-07T06:06:33;21.37;;;12.67;;
12433;SDS011;6281;49.038;8.372;2022-12-07T06:09:00;17.60;;;10.47;;
12433;SDS011;6281;49.038;8.372;2022-12-07T06:11:27;18.17;;;10.93;;
12433;SDS011;6281;49.038;8.372;2022-12-07T06:14:11;21.47;;;12.57;;
12433;SDS011;6281;49.038;8.372;2022-12-07T06:16:40;21.80;;;12.37;;
12433;SDS011;6281;49.038;8.372;2022-12-07T06:19:07;20.83;;;12.17;;
12433;SDS011;6281;49.038;8.372;2022-12-07T06:21:34;21.50;;;12.17;;
12433;SDS011;6281;49.038;8.372;2022-12-07T06:24:01;18.30;;;11.10;;
12433;SDS011;6281;49.038;8.372;2022-12-07T06:26:28;21.23;;;11.77;;
12433;SDS011;6281;49.038;8.372;2022-12-07T06:28:55;17.90;;;11.60;;
12433;SDS011;6281;49.038;8.372;2022-12-07T06:31:22;16.27;;;10.97;;
12433;SDS011;6281;49.038;8.372;2022-12-07T06:33:51;19.90;;;12.10;;
12433;SDS011;6281;49.038;8.372;2022-12-07T06:36:18;19.97;;;12.40;;
12433;SDS011;6281;49.038;8.372;2022-12-07T06:38:45;20.73;;;12.37;;
12433;SDS011;6281;49.038;8.372;2022-12-07T06:41:11;17.53;;;11.23;;
12433;SDS011;6281;49.038;8.372;2022-12-07T06:43:38;19.07;;;12.50;;
12433;SDS011;6281;49.038;8.372;2022-12-07T06:46:05;15.90;;;10.20;;
12433;SDS011;6281;49.038;8.372;2022-12-07T06:48:32;14.13;;;9.03;;
12433;SDS011;6281;49.038;8.372;2022-12-07T06:51:01;14.50;;;9.27;;
12433;SDS011;6281;49.038;8.372;2022-12-07T06:53:28;19.33;;;11.23;;
12433;SDS011;6281;49.038;8.372;2022-12-07T06:55:55;17.07;;;10.57;;
12433;SDS011;6281;49.038;8.372;2022-12-07T06:58:22;11.30;;;6.40;;
12433;SDS011;6281;49.038;8.372;2022-12-07T07:00:49;18.27;;;9.97;;
12433;SDS011;6281;49.038;8.372;2022-12-07T07:03:16;17.33;;;9.87;;
12433;SDS011;6281;49.038;8.372;2022-12-07T07:05:43;15.23;;;9.73;;
12433;SDS011;6281;49.038;8.372;2022-12-07T07:08:12;10.87;;;6.67;;
12433;SDS011;6281;49.038;8.372;2022-12-07T07:10:39;19.40;;;11.50;;
12433;SDS011;6281;49.038;8.372;2022-12-07T07:13:07;20.63;;;11.77;;
12433;SDS011;6281;49.038;8.372;2022-12-07T07:15:34;16.47;;;10.07;;
12433;SDS011;6281;49.038;8.372;2022-12-07T07:18:01;19.37;;;10.80;;
12433;SDS011;6281;49.038;8.372;2022-12-07T07:20:29;17.90;;;10.60;;
12433;SDS011;6281;49.038;8.372;2022-12-07T07:22:56;19.20;;;9.93;;
12433;SDS011;6281;49.038;8.372;2022-12-07T07:25:24;11.47;;;6.53;;
12433;SDS011;6281;49.038;8.372;2022-12-07T07:27:51;18.57;;;10.47;;
12433;SDS011;6281;49.038;8.372;2022-12-07T07:30:18;16.17;;;9.77;;
12433;SDS011;6281;49.038;8.372;2022-12-07T07:32:45;11.47;;;7.53;;
12433;SDS011;6281;49.038;8.372;2022-12-07T07:35:12;19.63;;;10.33;;
12433;SDS011;6281;49.038;8.372;2022-12-07T07:37:39;17.10;;;10.63;;
12433;SDS011;6281;49.038;8.372;2022-12-07T07:40:07;13.67;;;8.63;;
12433;SDS011;6281;49.038;8.372;2022-12-07T07:42:36;18.97;;;11.70;;
12433;SDS011;6281;49.038;8.372;2022-12-07T07:45:03;14.80;;;8.17;;
12433;SDS011;6281;49.038;8.372;2022-12-07T07:47:30;14.67;;;8.83;;
12433;SDS011;6281;49.038;8.372;2022-12-07T07:49:57;14.07;;;8.37;;
12433;SDS011;6281;49.038;8.372;2022-12-07T07:52:25;10.47;;;6.57;;
12433;SDS011;6281;49.038;8.372;2022-12-07T07:54:52;15.37;;;9.60;;
12433;SDS011;6281;49.038;8.372;2022-12-07T07:57:19;15.40;;;10.13;;
12433;SDS011;6281;49.038;8.372;2022-12-07T07:59:47;14.87;;;9.17;;
12433;SDS011;6281;49.038;8.372;2022-12-07T08:02:15;20.90;;;11.57;;
12433;SDS011;6281;49.038;8.372;2022-12-07T08:04:43;17.00;;;9.80;;
12433;SDS011;6281;49.038;8.372;2022-12-07T08:07:10;15.87;;;9.70;;
12433;SDS011;6281;49.038;8.372;2022-12-07T08:09:38;13.27;;;8.03;;
12433;SDS011;6281;49.038;8.372;2022-12-07T08:12:05;19.43;;;11.30;;
12433;SDS011;6281;49.038;8.372;2022-12-07T08:14:33;16.27;;;9.67;;
12433;SDS011;6281;49.038;8.372;2022-12-07T08:17:01;16.47;;;9.40;;
12433;SDS011;6281;49.038;8.372;2022-12-07T08:19:28;19.03;;;10.20;;
12433;SDS011;6281;49.038;8.372;2022-12-07T08:21:55;14.27;;;9.00;;
12433;SDS011;6281;49.038;8.372;2022-12-07T08:24:23;16.27;;;11.07;;
12433;SDS011;6281;49.038;8.372;2022-12-07T08:26:50;14.07;;;8.53;;
12433;SDS011;6281;49.038;8.372;2022-12-07T08:29:17;20.07;;;10.20;;
12433;SDS011;6281;49.038;8.372;2022-12-07T08:31:44;13.10;;;8.27;;
12433;SDS011;6281;49.038;8.372;2022-12-07T08:34:13;17.33;;;10.50;;
12433;SDS011;6281;49.038;8.372;2022-12-07T08:36:40;13.80;;;7.43;;
12433;SDS011;6281;49.038;8.372;2022-12-07T08:39:07;13.47;;;8.90;;
12433;SDS011;6281;49.038;8.372;2022-12-07T08:41:34;15.30;;;9.17;;
12433;SDS011;6281;49.038;8.372;2022-12-07T08:44:01;15.20;;;9.20;;
12433;SDS011;6281;49.038;8.372;2022-12-07T08:46:29;11.50;;;7.70;;
12433;SDS011;6281;49.038;8.372;2022-12-07T08:49:02;13.83;;;8.33;;
12433;SDS011;6281;49.038;8.372;2022-12-07T08:51:32;13.03;;;8.80;;
12433;SDS011;6281;49.038;8.372;2022-12-07T08:54:00;11.73;;;6.73;;
12433;SDS011;6281;49.038;8.372;2022-12-07T08:56:32;16.67;;;8.30;;
12433;SDS011;6281;49.038;8.372;2022-12-07T08:59:00;14.03;;;9.07;;
12433;SDS011;6281;49.038;8.372;2022-12-07T09:01:27;14.83;;;9.60;;
12433;SDS011;6281;49.038;8.372;2022-12-07T09:03:54;13.67;;;8.57;;
12433;SDS011;6281;49.038;8.372;2022-12-07T09:06:21;14.70;;;8.70;;
12433;SDS011;6281;49.038;8.372;2022-12-07T09:08:51;16.33;;;9.43;;
12433;SDS011;6281;49.038;8.372;2022-12-07T09:11:20;13.27;;;9.07;;
12433;SDS011;6281;49.038;8.372;2022-12-07T09:13:47;14.73;;;8.00;;
12433;SDS011;6281;49.038;8.372;2022-12-07T09:16:14;18.67;;;10.30;;
12433;SDS011;6281;49.038;8.372;2022-12-07T09:18:41;15.67;;;9.77;;
12433;SDS011;6281;49.038;8.372;2022-12-07T09:21:08;14.83;;;8.10;;
12433;SDS011;6281;49.038;8.372;2022-12-07T09:23:35;15.70;;;8.73;;
12433;SDS011;6281;49.038;8.372;2022-12-07T09:26:04;14.57;;;8.40;;
12433;SDS011;6281;49.038;8.372;2022-12-07T09:28:31;15.80;;;8.57;;
12433;SDS011;6281;49.038;8.372;2022-12-07T09:30:58;15.60;;;9.30;;
12433;SDS011;6281;49.038;8.372;2022-12-07T09:33:26;15.30;;;8.83;;
12433;SDS011;6281;49.038;8.372;2022-12-07T09:35:52;15.63;;;9.50;;
12433;SDS011;6281;49.038;8.372;2022-12-07T09:38:20;13.83;;;9.00;;
12433;SDS011;6281;49.038;8.372;2022-12-07T09:40:48;12.27;;;7.63;;
12433;SDS011;6281;49.038;8.372;2022-12-07T09:43:17;14.00;;;9.00;;
12433;SDS011;6281;49.038;8.372;2022-12-07T09:45:46;14.17;;;8.70;;
12433;SDS011;6281;49.038;8.372;2022-12-07T09:48:16;13.80;;;9.07;;
12433;SDS011;6281;49.038;8.372;2022-12-07T09:50:45;13.10;;;8.80;;
12433;SDS011;6281;49.038;8.372;2022-12-07T09:53:14;16.27;;;8.80;;
12433;SDS011;6281;49.038;8.372;2022-12-07T09:55:46;13.83;;;7.27;;
12433;SDS011;6281;49.038;8.372;2022-12-07T09:58:16;11.67;;;7.57;;
12433;SDS011;6281;49.038;8.372;2022-12-07T10:00:48;13.03;;;6.27;;
12433;SDS011;6281;49.038;8.372;2022-12-07T10:03:16;13.10;;;7.73;;
12433;SDS011;6281;49.038;8.372;2022-12-07T10:05:44;14.87;;;8.23;;
12433;SDS011;6281;49.038;8.372;2022-12-07T10:08:13;15.47;;;9.23;;
12433;SDS011;6281;49.038;8.372;2022-12-07T10:10:42;14.37;;;9.23;;
12433;SDS011;6281;49.038;8.372;2022-12-07T10:13:10;12.43;;;7.67;;
12433;SDS011;6281;49.038;8.372;2022-12-07T10:18:28;12.43;;;8.33;;
12433;SDS011;6281;49.038;8.372;2022-12-07T10:23:58;12.57;;;8.17;;
12433;SDS011;6281;49.038;8.372;2022-12-07T10:26:29;12.97;;;8.40;;
12433;SDS011;6281;49.038;8.372;2022-12-07T10:28:58;12.00;;;7.97;;
12433;SDS011;6281;49.038;8.372;2022-12-07T10:31:28;12.80;;;7.20;;
12433;SDS011;6281;49.038;8.372;2022-12-07T10:33:56;14.37;;;8.20;;
12433;SDS011;6281;49.038;8.372;2022-12-07T10:36:25;11.23;;;6.97;;
12433;SDS011;6281;49.038;8.372;2022-12-07T10:38:58;12.53;;;8.47;;
12433;SDS011;6281;49.038;8.372;2022-12-07T10:41:26;14.17;;;8.60;;
12433;SDS011;6281;49.038;8.372;2022-12-07T10:43:54;9.00;;;5.90;;
12433;SDS011;6281;49.038;8.372;2022-12-07T10:49:47;12.77;;;7.43;;
12433;SDS011;6281;49.038;8.372;2022-12-07T10:52:42;13.17;;;8.40;;
12433;SDS011;6281;49.038;8.372;2022-12-07T10:55:20;11.40;;;7.03;;
12433;SDS011;6281;49.038;8.372;2022-12-07T10:58:02;12.40;;;7.23;;
12433;SDS011;6281;49.038;8.372;2022-12-07T11:00:51;12.87;;;8.07;;
12433;SDS011;6281;49.038;8.372;2022-12-07T11:06:20;12.70;;;7.10;;
12433;SDS011;6281;49.038;8.372;2022-12-07T11:08:58;12.57;;;8.13;;
12433;SDS011;6281;49.038;8.372;2022-12-07T11:11:33;12.77;;;7.47;;
12433;SDS011;6281;49.038;8.372;2022-12-07T11:14:05;14.13;;;8.47;;
12433;SDS011;6281;49.038;8.372;2022-12-07T11:16:50;11.23;;;6.43;;
12433;SDS011;6281;49.038;8.372;2022-12-07T11:19:34;12.50;;;8.03;;
12433;SDS011;6281;49.038;8.372;2022-12-07T11:22:17;15.00;;;9.23;;
12433;SDS011;6281;49.038;8.372;2022-12-07T11:24:50;12.60;;;8.33;;
12433;SDS011;6281;49.038;8.372;2022-12-07T11:27:24;13.30;;;8.83;;
12433;SDS011;6281;49.038;8.372;2022-12-07T11:30:12;14.20;;;8.97;;
12433;SDS011;6281;49.038;8.372;2022-12-07T11:32:50;10.83;;;5.97;;
12433;SDS011;6281;49.038;8.372;2022-12-07T11:35:32;12.47;;;7.50;;
12433;SDS011;6281;49.038;8.372;2022-12-07T11:38:10;13.10;;;7.37;;
12433;SDS011;6281;49.038;8.372;2022-12-07T11:40:41;14.33;;;8.33;;
12433;SDS011;6281;49.038;8.372;2022-12-07T11:43:13;11.30;;;7.50;;
12433;SDS011;6281;49.038;8.372;2022-12-07T11:45:46;10.70;;;6.13;;
12433;SDS011;6281;49.038;8.372;2022-12-07T11:48:20;16.83;;;9.93;;
12433;SDS011;6281;49.038;8.372;2022-12-07T11:50:52;14.73;;;8.53;;
12433;SDS011;6281;49.038;8.372;2022-12-07T11:53:24;12.73;;;8.67;;
12433;SDS011;6281;49.038;8.372;2022-12-07T11:55:54;14.73;;;8.97;;
12433;SDS011;6281;49.038;8.372;2022-12-07T11:58:37;13.47;;;9.37;;
12433;SDS011;6281;49.038;8.372;2022-12-07T12:01:18;13.80;;;8.30;;
12433;SDS011;6281;49.038;8.372;2022-12-07T12:04:10;15.53;;;9.03;;
12433;SDS011;6281;49.038;8.372;2022-12-07T12:06:50;13.33;;;8.43;;
12433;SDS011;6281;49.038;8.372;2022-12-07T12:09:19;12.80;;;8.00;;
12433;SDS011;6281;49.038;8.372;2022-12-07T12:12:04;13.80;;;8.53;;
12433;SDS011;6281;49.038;8.372;2022-12-07T12:14:46;13.03;;;9.27;;
12433;SDS011;6281;49.038;8.372;2022-12-07T12:17:37;17.00;;;10.10;;
12433;SDS011;6281;49.038;8.372;2022-12-07T12:20:19;13.50;;;9.03;;
12433;SDS011;6281;49.038;8.372;2022-12-07T12:22:52;13.77;;;8.43;;
12433;SDS011;6281;49.038;8.372;2022-12-07T12:25:24;10.57;;;6.93;;
12433;SDS011;6281;49.038;8.372;2022-12-07T12:27:54;13.27;;;7.27;;
12433;SDS011;6281;49.038;8.372;2022-12-07T12:30:25;15.03;;;7.00;;
12433;SDS011;6281;49.038;8.372;2022-12-07T12:33:03;15.30;;;7.87;;
12433;SDS011;6281;49.038;8.372;2022-12-07T12:35:32;14.33;;;8.00;;
12433;SDS011;6281;49.038;8.372;2022-12-07T12:40:52;15.97;;;10.00;;
12433;SDS011;6281;49.038;8.372;2022-12-07T12:55:16;13.07;;;8.73;;
12433;SDS011;6281;49.038;8.372;2022-12-07T13:10:38;14.53;;;9.40;;
12433;SDS011;6281;49.038;8.372;2022-12-07T13:22:07;18.30;;;9.97;;
12433;SDS011;6281;49.038;8.372;2022-12-07T13:25:03;13.13;;;8.07;;
12433;SDS011;6281;49.038;8.372;2022-12-07T13:27:35;15.33;;;8.90;;
12433;SDS011;6281;49.038;8.372;2022-12-07T13:30:09;12.17;;;8.33;;
12433;SDS011;6281;49.038;8.372;2022-12-07T13:32:41;12.43;;;7.77;;
12433;SDS011;6281;49.038;8.372;2022-12-07T13:35:27;14.83;;;9.17;;
12433;SDS011;6281;49.038;8.372;2022-12-07T13:37:59;11.27;;;7.40;;
12433;SDS011;6281;49.038;8.372;2022-12-07T13:40:30;17.30;;;9.40;;
12433;SDS011;6281;49.038;8.372;2022-12-07T13:42:59;16.77;;;10.43;;
12433;SDS011;6281;49.038;8.372;2022-12-07T13:45:27;15.47;;;8.80;;
12433;SDS011;6281;49.038;8.372;2022-12-07T13:48:14;15.43;;;9.03;;
12433;SDS011;6281;49.038;8.372;2022-12-07T13:50:52;15.20;;;9.03;;
12433;SDS011;6281;49.038;8.372;2022-12-07T13:53:20;16.33;;;9.57;;
12433;SDS011;6281;49.038;8.372;2022-12-07T13:55:47;16.10;;;9.37;;
12433;SDS011;6281;49.038;8.372;2022-12-07T13:58:16;14.13;;;8.87;;
12433;SDS011;6281;49.038;8.372;2022-12-07T14:00:43;15.90;;;9.07;;
12433;SDS011;6281;49.038;8.372;2022-12-07T14:03:27;12.60;;;8.00;;
12433;SDS011;6281;49.038;8.372;2022-12-07T14:09:06;11.97;;;7.80;;
12433;SDS011;6281;49.038;8.372;2022-12-07T14:11:33;12.43;;;7.07;;
12433;SDS011;6281;49.038;8.372;2022-12-07T14:14:02;11.70;;;7.60;;
12433;SDS011;6281;49.038;8.372;2022-12-07T14:16:31;18.47;;;8.57;;
12433;SDS011;6281;49.038;8.372;2022-12-07T14:19:01;15.23;;;7.60;;
12433;SDS011;6281;49.038;8.372;2022-12-07T14:21:30;12.10;;;7.90;;
12433;SDS011;6281;49.038;8.372;2022-12-07T14:26:46;15.10;;;8.30;;
12433;SDS011;6281;49.038;8.372;2022-12-07T14:29:32;12.43;;;7.70;;
12433;SDS011;6281;49.038;8.372;2022-12-07T14:32:11;13.13;;;8.27;;
12433;SDS011;6281;49.038;8.372;2022-12-07T14:34:56;14.47;;;8.60;;
12433;SDS011;6281;49.038;8.372;2022-12-07T14:37:27;11.77;;;8.20;;
12433;SDS011;6281;49.038;8.372;2022-12-07T14:39:55;15.30;;;9.10;;
12433;SDS011;6281;49.038;8.372;2022-12-07T14:42:23;13.60;;;8.50;;
12433;SDS011;6281;49.038;8.372;2022-12-07T14:44:54;15.80;;;9.60;;
12433;SDS011;6281;49.038;8.372;2022-12-07T14:47:21;17.73;;;10.87;;
12433;SDS011;6281;49.038;8.372;2022-12-07T14:49:48;16.43;;;9.43;;
12433;SDS011;6281;49.038;8.372;2022-12-07T14:52:16;16.23;;;10.07;;
12433;SDS011;6281;49.038;8.372;2022-12-07T14:54:45;13.93;;;8.43;;
12433;SDS011;6281;49.038;8.372;2022-12-07T14:57:12;13.27;;;7.93;;
12433;SDS011;6281;49.038;8.372;2022-12-07T14:59:39;11.83;;;8.27;;
12433;SDS011;6281;49.038;8.372;2022-12-07T15:02:09;12.73;;;8.43;;
12433;SDS011;6281;49.038;8.372;2022-12-07T15:04:38;13.43;;;8.93;;
12433;SDS011;6281;49.038;8.372;2022-12-07T15:07:08;13.23;;;8.77;;
12433;SDS011;6281;49.038;8.372;2022-12-07T15:09:47;12.03;;;8.47;;
12433;SDS011;6281;49.038;8.372;2022-12-07T15:12:14;12.60;;;8.13;;
12433;SDS011;6281;49.038;8.372;2022-12-07T15:14:41;11.47;;;7.67;;
12433;SDS011;6281;49.038;8.372;2022-12-07T15:17:10;15.53;;;8.07;;
12433;SDS011;6281;49.038;8.372;2022-12-07T15:19:38;11.33;;;7.80;;
12433;SDS011;6281;49.038;8.372;2022-12-07T15:22:05;12.03;;;8.07;;
12433;SDS011;6281;49.038;8.372;2022-12-07T15:24:32;13.93;;;8.33;;
12433;SDS011;6281;49.038;8.372;2022-12-07T15:27:00;12.27;;;7.63;;
12433;SDS011;6281;49.038;8.372;2022-12-07T15:29:27;13.27;;;8.80;;
12433;SDS011;6281;49.038;8.372;2022-12-07T15:31:53;11.70;;;8.47;;
12433;SDS011;6281;49.038;8.372;2022-12-07T15:34:22;16.63;;;8.30;;
12433;SDS011;6281;49.038;8.372;2022-12-07T15:36:49;12.73;;;8.43;;
12433;SDS011;6281;49.038;8.372;2022-12-07T15:39:16;12.20;;;6.80;;
12433;SDS011;6281;49.038;8.372;2022-12-07T15:41:43;9.73;;;6.37;;
12433;SDS011;6281;49.038;8.372;2022-12-07T15:44:11;13.10;;;8.43;;
12433;SDS011;6281;49.038;8.372;2022-12-07T15:46:56;10.73;;;7.00;;
12433;SDS011;6281;49.038;8.372;2022-12-07T15:49:24;10.90;;;7.47;;
12433;SDS011;6281;49.038;8.372;2022-12-07T15:51:52;16.20;;;8.17;;
12433;SDS011;6281;49.038;8.372;2022-12-07T15:54:20;11.63;;;7.23;;
12433;SDS011;6281;49.038;8.372;2022-12-07T15:56:48;14.00;;;8.53;;
12433;SDS011;6281;49.038;8.372;2022-12-07T15:59:15;11.57;;;7.63;;
12433;SDS011;6281;49.038;8.372;2022-12-07T16:01:42;12.70;;;8.70;;
12433;SDS011;6281;49.038;8.372;2022-12-07T16:04:09;16.77;;;8.50;;